| Date | Time | Temp. (oF) | Dew Point (oF) | Rel. Hum. (%) | Press. (in.) | Wind Dir. (deg.) | Wind Speed (mph) | Hourly Rainfall (i n.) |
|
|---|---|---|---|---|---|---|---|---|---|
| 1 | 09/09 | 24:00 | 74 | 65 | 74 | 30.06 | 310 | 0 | 0.00 |
| 2 | 09/08 | 23:00 | 75 | 65 | 72 | 30.06 | 310 | 0 | 0.00 |
| 3 | 09/08 | 22:00 | 75 | 65 | 72 | 30.07 | 310 | 0 | 0.00 |
| 4 | 09/08 | 21:00 | 77 | 64 | 65 | 30.08 | 310 | 0 | 0.00 |
| 5 | 09/08 | 20:00 | 81 | 64 | 57 | 30.07 | 310 | 0 | 0.00 |
| 6 | 09/08 | 19:00 | 84 | 62 | 49 | 30.09 | 310 | 6 | 0.00 |
| 7 | 09/08 | 18:00 | 85 | 61 | 45 | 30.10 | 330 | 4 | 0.00 |
| 8 | 09/08 | 17:00 | 87 | 62 | 45 | 30.08 | 310 | 7 | 0.00 |
| 9 | 09/08 | 16:00 | 87 | 65 | 50 | 30.06 | 290 | 6 | 0.00 |
| 10 | 09/08 | 15:00 | 87 | 67 | 53 | 30.06 | 130 | 6 | 0.00 |
| 11 | 09/08 | 14:00 | 87 | 69 | 56 | 30.06 | 310 | 6 | 0.00 |
| 12 | 09/08 | 13:00 | 86 | 68 | 57 | 30.06 | 150 | 2 | 0.00 |
| 13 | 09/08 | 12:00 | 83 | 69 | 64 | 30.07 | 10 | 1 | 0.00 |
| 14 | 09/08 | 11:00 | 81 | 68 | 67 | 30.06 | 270 | 2 | 0.00 |
| 15 | 09/08 | 10:00 | 78 | 68 | 73 | 30.06 | 30 | 2 | 0.00 |
| 16 | 09/08 | 09:00 | 75 | 68 | 79 | 30.05 | 90 | 0 | 0.00 |
| 17 | 09/08 | 08:00 | 74 | 68 | 82 | 30.05 | 330 | 0 | 0.00 |
| 18 | 09/08 | 07:00 | 74 | 68 | 83 | 30.03 | 330 | 1 | 0.01 |
| 19 | 09/08 | 06:00 | 74 | 68 | 83 | 30.02 | 330 | 1 | 0.00 |
| 20 | 09/08 | 05:00 | 75 | 69 | 82 | 30.02 | 330 | 0 | 0.00 |
| 21 | 09/08 | 04:00 | 77 | 69 | 79 | 30.01 | 330 | 1 | 0.00 |
| 22 | 09/08 | 03:00 | 78 | 70 | 78 | 30.02 | 10 | 2 | 0.00 |
| 23 | 09/08 | 02:00 | 77 | 69 | 77 | 30.05 | 30 | 0 | 0.00 |
| 24 | 09/08 | 01:00 | 77 | 69 | 78 | 30.06 | 130 | 1 | 0.00 |